sensor_id;sensor_type;location;lat;lon;timestamp;P1;durP1;ratioP1;P2;durP2;ratioP2
18752;SDS011;9505;50.882;5.350;2024-01-06T00:01:59;38.92;;;9.57;;
18752;SDS011;9505;50.882;5.350;2024-01-06T00:04:25;30.65;;;9.20;;
18752;SDS011;9505;50.882;5.350;2024-01-06T00:06:50;42.53;;;9.63;;
18752;SDS011;9505;50.882;5.350;2024-01-06T00:09:16;31.08;;;8.45;;
18752;SDS011;9505;50.882;5.350;2024-01-06T00:11:41;20.63;;;7.15;;
18752;SDS011;9505;50.882;5.350;2024-01-06T00:14:07;36.00;;;8.18;;
18752;SDS011;9505;50.882;5.350;2024-01-06T00:16:33;31.33;;;7.90;;
18752;SDS011;9505;50.882;5.350;2024-01-06T00:18:58;48.05;;;8.93;;
18752;SDS011;9505;50.882;5.350;2024-01-06T00:21:24;33.45;;;7.88;;
18752;SDS011;9505;50.882;5.350;2024-01-06T00:23:50;34.25;;;8.07;;
18752;SDS011;9505;50.882;5.350;2024-01-06T00:26:16;36.35;;;8.80;;
18752;SDS011;9505;50.882;5.350;2024-01-06T00:28:41;34.42;;;7.90;;
18752;SDS011;9505;50.882;5.350;2024-01-06T00:31:07;40.50;;;8.23;;
18752;SDS011;9505;50.882;5.350;2024-01-06T00:33:33;31.63;;;7.75;;
18752;SDS011;9505;50.882;5.350;2024-01-06T00:35:58;43.65;;;9.05;;
18752;SDS011;9505;50.882;5.350;2024-01-06T00:38:24;39.75;;;8.98;;
18752;SDS011;9505;50.882;5.350;2024-01-06T00:40:49;36.17;;;8.90;;
18752;SDS011;9505;50.882;5.350;2024-01-06T00:43:15;42.75;;;9.30;;
18752;SDS011;9505;50.882;5.350;2024-01-06T00:45:41;34.20;;;8.65;;
18752;SDS011;9505;50.882;5.350;2024-01-06T00:48:06;43.95;;;9.27;;
18752;SDS011;9505;50.882;5.350;2024-01-06T00:50:32;32.05;;;8.60;;
18752;SDS011;9505;50.882;5.350;2024-01-06T00:52:57;31.92;;;8.32;;
18752;SDS011;9505;50.882;5.350;2024-01-06T00:55:23;35.55;;;9.05;;
18752;SDS011;9505;50.882;5.350;2024-01-06T00:57:49;39.05;;;8.20;;
18752;SDS011;9505;50.882;5.350;2024-01-06T01:00:15;47.47;;;9.27;;
18752;SDS011;9505;50.882;5.350;2024-01-06T01:02:41;37.42;;;8.07;;
18752;SDS011;9505;50.882;5.350;2024-01-06T01:05:06;30.92;;;7.80;;
18752;SDS011;9505;50.882;5.350;2024-01-06T01:07:33;39.30;;;8.45;;
18752;SDS011;9505;50.882;5.350;2024-01-06T01:09:58;29.27;;;8.23;;
18752;SDS011;9505;50.882;5.350;2024-01-06T01:12:24;30.55;;;7.55;;
18752;SDS011;9505;50.882;5.350;2024-01-06T01:14:50;29.30;;;7.18;;
18752;SDS011;9505;50.882;5.350;2024-01-06T01:17:16;43.25;;;8.25;;
18752;SDS011;9505;50.882;5.350;2024-01-06T01:19:42;44.00;;;8.13;;
18752;SDS011;9505;50.882;5.350;2024-01-06T01:22:08;48.45;;;9.07;;
18752;SDS011;9505;50.882;5.350;2024-01-06T01:24:34;38.08;;;7.03;;
18752;SDS011;9505;50.882;5.350;2024-01-06T01:26:59;28.88;;;7.00;;
18752;SDS011;9505;50.882;5.350;2024-01-06T01:29:25;31.88;;;7.05;;
18752;SDS011;9505;50.882;5.350;2024-01-06T01:31:50;33.22;;;7.22;;
18752;SDS011;9505;50.882;5.350;2024-01-06T01:34:16;27.17;;;6.70;;
18752;SDS011;9505;50.882;5.350;2024-01-06T01:36:42;35.97;;;7.97;;
18752;SDS011;9505;50.882;5.350;2024-01-06T01:39:08;40.42;;;7.57;;
18752;SDS011;9505;50.882;5.350;2024-01-06T01:41:34;32.85;;;6.82;;
18752;SDS011;9505;50.882;5.350;2024-01-06T01:44:00;29.67;;;6.97;;
18752;SDS011;9505;50.882;5.350;2024-01-06T01:46:26;46.95;;;7.88;;
18752;SDS011;9505;50.882;5.350;2024-01-06T01:48:54;36.85;;;7.15;;
18752;SDS011;9505;50.882;5.350;2024-01-06T01:51:21;35.65;;;6.90;;
18752;SDS011;9505;50.882;5.350;2024-01-06T01:53:47;19.50;;;5.88;;
18752;SDS011;9505;50.882;5.350;2024-01-06T01:56:13;37.35;;;7.70;;
18752;SDS011;9505;50.882;5.350;2024-01-06T01:58:39;30.35;;;6.97;;
18752;SDS011;9505;50.882;5.350;2024-01-06T02:01:05;36.08;;;6.95;;
18752;SDS011;9505;50.882;5.350;2024-01-06T02:03:32;24.38;;;6.72;;
18752;SDS011;9505;50.882;5.350;2024-01-06T02:05:58;42.30;;;8.07;;
18752;SDS011;9505;50.882;5.350;2024-01-06T02:08:24;31.55;;;7.22;;
18752;SDS011;9505;50.882;5.350;2024-01-06T02:10:49;34.75;;;7.82;;
18752;SDS011;9505;50.882;5.350;2024-01-06T02:13:15;39.20;;;8.15;;
18752;SDS011;9505;50.882;5.350;2024-01-06T02:15:41;49.70;;;9.20;;
18752;SDS011;9505;50.882;5.350;2024-01-06T02:18:06;42.40;;;8.38;;
18752;SDS011;9505;50.882;5.350;2024-01-06T02:20:32;32.30;;;7.18;;
18752;SDS011;9505;50.882;5.350;2024-01-06T02:22:58;39.58;;;8.60;;
18752;SDS011;9505;50.882;5.350;2024-01-06T02:25:25;35.53;;;8.38;;
18752;SDS011;9505;50.882;5.350;2024-01-06T02:27:51;29.42;;;8.43;;
18752;SDS011;9505;50.882;5.350;2024-01-06T02:30:17;31.88;;;8.45;;
18752;SDS011;9505;50.882;5.350;2024-01-06T02:32:42;45.90;;;9.88;;
18752;SDS011;9505;50.882;5.350;2024-01-06T02:35:08;45.33;;;10.32;;
18752;SDS011;9505;50.882;5.350;2024-01-06T02:37:33;45.60;;;10.32;;
18752;SDS011;9505;50.882;5.350;2024-01-06T02:39:59;35.78;;;8.90;;
18752;SDS011;9505;50.882;5.350;2024-01-06T02:42:25;38.88;;;9.93;;
18752;SDS011;9505;50.882;5.350;2024-01-06T02:44:50;33.75;;;9.57;;
18752;SDS011;9505;50.882;5.350;2024-01-06T02:47:16;40.13;;;9.48;;
18752;SDS011;9505;50.882;5.350;2024-01-06T02:49:42;32.30;;;9.05;;
18752;SDS011;9505;50.882;5.350;2024-01-06T02:52:08;32.88;;;8.77;;
18752;SDS011;9505;50.882;5.350;2024-01-06T02:54:33;38.17;;;9.40;;
18752;SDS011;9505;50.882;5.350;2024-01-06T02:56:59;20.98;;;7.88;;
18752;SDS011;9505;50.882;5.350;2024-01-06T02:59:25;49.45;;;10.88;;
18752;SDS011;9505;50.882;5.350;2024-01-06T03:01:50;32.40;;;9.02;;
18752;SDS011;9505;50.882;5.350;2024-01-06T03:04:16;35.42;;;10.35;;
18752;SDS011;9505;50.882;5.350;2024-01-06T03:06:42;35.47;;;9.77;;
18752;SDS011;9505;50.882;5.350;2024-01-06T03:09:08;32.55;;;9.27;;
18752;SDS011;9505;50.882;5.350;2024-01-06T03:11:33;32.83;;;9.77;;
18752;SDS011;9505;50.882;5.350;2024-01-06T03:13:59;35.05;;;9.65;;
18752;SDS011;9505;50.882;5.350;2024-01-06T03:16:25;32.17;;;9.13;;
18752;SDS011;9505;50.882;5.350;2024-01-06T03:18:50;32.20;;;8.88;;
18752;SDS011;9505;50.882;5.350;2024-01-06T03:21:16;35.60;;;8.75;;
18752;SDS011;9505;50.882;5.350;2024-01-06T03:23:46;34.03;;;9.40;;
18752;SDS011;9505;50.882;5.350;2024-01-06T03:26:13;34.63;;;9.07;;
18752;SDS011;9505;50.882;5.350;2024-01-06T03:28:39;39.00;;;9.63;;
18752;SDS011;9505;50.882;5.350;2024-01-06T03:31:04;39.40;;;9.60;;
18752;SDS011;9505;50.882;5.350;2024-01-06T03:33:30;36.45;;;9.18;;
18752;SDS011;9505;50.882;5.350;2024-01-06T03:35:55;32.00;;;8.88;;
18752;SDS011;9505;50.882;5.350;2024-01-06T03:38:21;34.17;;;9.10;;
18752;SDS011;9505;50.882;5.350;2024-01-06T03:40:47;46.03;;;9.85;;
18752;SDS011;9505;50.882;5.350;2024-01-06T03:43:12;43.72;;;10.50;;
18752;SDS011;9505;50.882;5.350;2024-01-06T03:45:38;47.25;;;10.35;;
18752;SDS011;9505;50.882;5.350;2024-01-06T03:48:03;52.50;;;12.40;;
18752;SDS011;9505;50.882;5.350;2024-01-06T03:50:29;39.17;;;10.90;;
18752;SDS011;9505;50.882;5.350;2024-01-06T03:52:55;47.38;;;13.40;;
18752;SDS011;9505;50.882;5.350;2024-01-06T03:55:20;52.83;;;12.45;;
18752;SDS011;9505;50.882;5.350;2024-01-06T03:57:47;56.15;;;12.85;;
18752;SDS011;9505;50.882;5.350;2024-01-06T04:00:12;66.93;;;13.95;;
18752;SDS011;9505;50.882;5.350;2024-01-06T04:02:38;56.40;;;13.98;;
18752;SDS011;9505;50.882;5.350;2024-01-06T04:05:04;50.45;;;13.48;;
18752;SDS011;9505;50.882;5.350;2024-01-06T04:07:30;78.25;;;15.90;;
18752;SDS011;9505;50.882;5.350;2024-01-06T04:09:55;60.90;;;13.90;;
18752;SDS011;9505;50.882;5.350;2024-01-06T04:12:21;66.15;;;14.68;;
18752;SDS011;9505;50.882;5.350;2024-01-06T04:14:47;57.15;;;13.75;;
18752;SDS011;9505;50.882;5.350;2024-01-06T04:17:12;64.68;;;15.73;;
18752;SDS011;9505;50.882;5.350;2024-01-06T04:19:38;68.25;;;15.38;;
18752;SDS011;9505;50.882;5.350;2024-01-06T04:22:03;61.22;;;14.88;;
18752;SDS011;9505;50.882;5.350;2024-01-06T04:24:29;63.25;;;15.07;;
18752;SDS011;9505;50.882;5.350;2024-01-06T04:26:55;51.00;;;14.70;;
18752;SDS011;9505;50.882;5.350;2024-01-06T04:29:21;71.50;;;16.33;;
18752;SDS011;9505;50.882;5.350;2024-01-06T04:31:46;58.15;;;14.48;;
18752;SDS011;9505;50.882;5.350;2024-01-06T04:34:12;60.17;;;15.38;;
18752;SDS011;9505;50.882;5.350;2024-01-06T04:36:37;65.72;;;14.90;;
18752;SDS011;9505;50.882;5.350;2024-01-06T04:39:03;56.35;;;13.77;;
18752;SDS011;9505;50.882;5.350;2024-01-06T04:41:29;63.67;;;14.77;;
18752;SDS011;9505;50.882;5.350;2024-01-06T04:43:54;73.43;;;14.52;;
18752;SDS011;9505;50.882;5.350;2024-01-06T04:46:20;72.53;;;15.63;;
18752;SDS011;9505;50.882;5.350;2024-01-06T04:48:46;72.75;;;16.98;;
18752;SDS011;9505;50.882;5.350;2024-01-06T04:51:12;62.90;;;15.52;;
18752;SDS011;9505;50.882;5.350;2024-01-06T04:53:38;68.68;;;15.13;;
18752;SDS011;9505;50.882;5.350;2024-01-06T04:56:05;77.07;;;17.58;;
18752;SDS011;9505;50.882;5.350;2024-01-06T04:58:30;62.95;;;16.42;;
18752;SDS011;9505;50.882;5.350;2024-01-06T05:00:56;59.35;;;15.70;;
18752;SDS011;9505;50.882;5.350;2024-01-06T05:03:22;64.57;;;16.65;;
18752;SDS011;9505;50.882;5.350;2024-01-06T05:05:48;67.75;;;16.70;;
18752;SDS011;9505;50.882;5.350;2024-01-06T05:08:13;67.82;;;16.42;;
18752;SDS011;9505;50.882;5.350;2024-01-06T05:10:39;66.18;;;16.95;;
18752;SDS011;9505;50.882;5.350;2024-01-06T05:13:05;51.33;;;14.05;;
18752;SDS011;9505;50.882;5.350;2024-01-06T05:15:30;65.38;;;16.48;;
18752;SDS011;9505;50.882;5.350;2024-01-06T05:17:56;44.17;;;12.25;;
18752;SDS011;9505;50.882;5.350;2024-01-06T05:20:21;39.50;;;11.32;;
18752;SDS011;9505;50.882;5.350;2024-01-06T05:22:47;52.03;;;13.80;;
18752;SDS011;9505;50.882;5.350;2024-01-06T05:25:13;62.90;;;14.75;;
18752;SDS011;9505;50.882;5.350;2024-01-06T05:27:38;51.25;;;12.77;;
18752;SDS011;9505;50.882;5.350;2024-01-06T05:30:04;50.08;;;13.18;;
18752;SDS011;9505;50.882;5.350;2024-01-06T05:32:31;43.35;;;11.23;;
18752;SDS011;9505;50.882;5.350;2024-01-06T05:34:56;45.75;;;11.68;;
18752;SDS011;9505;50.882;5.350;2024-01-06T05:37:22;56.83;;;13.65;;
18752;SDS011;9505;50.882;5.350;2024-01-06T05:39:48;44.85;;;11.80;;
18752;SDS011;9505;50.882;5.350;2024-01-06T05:42:13;48.75;;;12.90;;
18752;SDS011;9505;50.882;5.350;2024-01-06T05:44:40;48.38;;;12.45;;
18752;SDS011;9505;50.882;5.350;2024-01-06T05:47:06;39.75;;;11.32;;
18752;SDS011;9505;50.882;5.350;2024-01-06T05:49:33;42.30;;;11.27;;
18752;SDS011;9505;50.882;5.350;2024-01-06T05:51:58;46.25;;;11.68;;
18752;SDS011;9505;50.882;5.350;2024-01-06T05:54:24;56.08;;;13.18;;
18752;SDS011;9505;50.882;5.350;2024-01-06T05:56:50;55.70;;;12.98;;
18752;SDS011;9505;50.882;5.350;2024-01-06T05:59:15;49.33;;;13.70;;
18752;SDS011;9505;50.882;5.350;2024-01-06T06:01:41;58.42;;;13.85;;
18752;SDS011;9505;50.882;5.350;2024-01-06T06:04:08;50.65;;;13.20;;
18752;SDS011;9505;50.882;5.350;2024-01-06T06:06:35;43.60;;;11.90;;
18752;SDS011;9505;50.882;5.350;2024-01-06T06:09:01;40.83;;;12.40;;
18752;SDS011;9505;50.882;5.350;2024-01-06T06:11:31;38.75;;;11.98;;
18752;SDS011;9505;50.882;5.350;2024-01-06T06:13:57;40.92;;;11.30;;
18752;SDS011;9505;50.882;5.350;2024-01-06T06:16:23;41.75;;;10.73;;
18752;SDS011;9505;50.882;5.350;2024-01-06T06:18:49;37.67;;;10.35;;
18752;SDS011;9505;50.882;5.350;2024-01-06T06:21:14;40.15;;;10.23;;
18752;SDS011;9505;50.882;5.350;2024-01-06T06:23:40;50.50;;;10.43;;
18752;SDS011;9505;50.882;5.350;2024-01-06T06:26:06;41.05;;;10.27;;
18752;SDS011;9505;50.882;5.350;2024-01-06T06:28:32;45.35;;;11.02;;
18752;SDS011;9505;50.882;5.350;2024-01-06T06:30:57;42.83;;;10.85;;
18752;SDS011;9505;50.882;5.350;2024-01-06T06:33:23;58.33;;;11.32;;
18752;SDS011;9505;50.882;5.350;2024-01-06T06:35:48;40.15;;;9.50;;
18752;SDS011;9505;50.882;5.350;2024-01-06T06:38:14;41.72;;;11.15;;
18752;SDS011;9505;50.882;5.350;2024-01-06T06:40:39;36.10;;;9.05;;
18752;SDS011;9505;50.882;5.350;2024-01-06T06:43:05;36.15;;;9.15;;
18752;SDS011;9505;50.882;5.350;2024-01-06T06:45:31;43.70;;;10.00;;
18752;SDS011;9505;50.882;5.350;2024-01-06T06:47:57;41.30;;;10.07;;
18752;SDS011;9505;50.882;5.350;2024-01-06T06:50:23;32.33;;;9.32;;
18752;SDS011;9505;50.882;5.350;2024-01-06T06:52:48;32.55;;;8.55;;
18752;SDS011;9505;50.882;5.350;2024-01-06T06:55:14;46.50;;;10.30;;
18752;SDS011;9505;50.882;5.350;2024-01-06T06:57:40;38.75;;;9.32;;
18752;SDS011;9505;50.882;5.350;2024-01-06T07:00:05;35.75;;;9.20;;
18752;SDS011;9505;50.882;5.350;2024-01-06T07:02:34;32.55;;;9.05;;
18752;SDS011;9505;50.882;5.350;2024-01-06T07:05:00;33.78;;;8.27;;
18752;SDS011;9505;50.882;5.350;2024-01-06T07:07:26;29.05;;;8.80;;
18752;SDS011;9505;50.882;5.350;2024-01-06T07:09:51;31.45;;;8.32;;
18752;SDS011;9505;50.882;5.350;2024-01-06T07:12:17;38.17;;;8.77;;
18752;SDS011;9505;50.882;5.350;2024-01-06T07:14:42;47.78;;;9.68;;
18752;SDS011;9505;50.882;5.350;2024-01-06T07:17:08;43.60;;;9.70;;
18752;SDS011;9505;50.882;5.350;2024-01-06T07:19:34;35.75;;;9.55;;
18752;SDS011;9505;50.882;5.350;2024-01-06T07:22:01;39.40;;;8.40;;
18752;SDS011;9505;50.882;5.350;2024-01-06T07:24:26;34.05;;;8.13;;
18752;SDS011;9505;50.882;5.350;2024-01-06T07:26:52;38.30;;;8.98;;
18752;SDS011;9505;50.882;5.350;2024-01-06T07:29:19;29.40;;;8.27;;
18752;SDS011;9505;50.882;5.350;2024-01-06T07:31:44;37.50;;;9.00;;
18752;SDS011;9505;50.882;5.350;2024-01-06T07:34:10;36.83;;;8.55;;
18752;SDS011;9505;50.882;5.350;2024-01-06T07:36:37;28.85;;;9.57;;
18752;SDS011;9505;50.882;5.350;2024-01-06T07:39:04;30.88;;;9.15;;
18752;SDS011;9505;50.882;5.350;2024-01-06T07:41:31;37.70;;;7.97;;
18752;SDS011;9505;50.882;5.350;2024-01-06T07:43:57;30.35;;;8.73;;
18752;SDS011;9505;50.882;5.350;2024-01-06T07:46:23;43.50;;;9.52;;
18752;SDS011;9505;50.882;5.350;2024-01-06T07:48:49;48.72;;;9.95;;
18752;SDS011;9505;50.882;5.350;2024-01-06T07:51:14;47.83;;;10.48;;
18752;SDS011;9505;50.882;5.350;2024-01-06T07:53:40;52.72;;;11.75;;
18752;SDS011;9505;50.882;5.350;2024-01-06T07:56:07;39.30;;;9.43;;
18752;SDS011;9505;50.882;5.350;2024-01-06T07:58:33;57.92;;;11.35;;
18752;SDS011;9505;50.882;5.350;2024-01-06T08:00:59;48.38;;;10.38;;
18752;SDS011;9505;50.882;5.350;2024-01-06T08:03:24;47.33;;;10.38;;
18752;SDS011;9505;50.882;5.350;2024-01-06T08:05:50;54.42;;;10.77;;
18752;SDS011;9505;50.882;5.350;2024-01-06T08:08:15;38.35;;;10.50;;
18752;SDS011;9505;50.882;5.350;2024-01-06T08:10:42;35.58;;;9.77;;
18752;SDS011;9505;50.882;5.350;2024-01-06T08:13:08;32.33;;;8.43;;
18752;SDS011;9505;50.882;5.350;2024-01-06T08:15:33;39.97;;;10.55;;
18752;SDS011;9505;50.882;5.350;2024-01-06T08:17:59;43.17;;;10.23;;
18752;SDS011;9505;50.882;5.350;2024-01-06T08:20:25;39.97;;;10.02;;
18752;SDS011;9505;50.882;5.350;2024-01-06T08:22:50;41.90;;;10.57;;
18752;SDS011;9505;50.882;5.350;2024-01-06T08:25:16;47.50;;;10.15;;
18752;SDS011;9505;50.882;5.350;2024-01-06T08:27:42;35.03;;;10.15;;
18752;SDS011;9505;50.882;5.350;2024-01-06T08:30:08;47.40;;;10.52;;
18752;SDS011;9505;50.882;5.350;2024-01-06T08:32:34;45.13;;;10.48;;
18752;SDS011;9505;50.882;5.350;2024-01-06T08:35:00;42.25;;;10.25;;
18752;SDS011;9505;50.882;5.350;2024-01-06T08:37:26;32.60;;;9.38;;
18752;SDS011;9505;50.882;5.350;2024-01-06T08:39:51;44.88;;;9.73;;
18752;SDS011;9505;50.882;5.350;2024-01-06T08:42:17;41.08;;;10.18;;
18752;SDS011;9505;50.882;5.350;2024-01-06T08:44:42;39.15;;;10.02;;
18752;SDS011;9505;50.882;5.350;2024-01-06T08:47:08;40.00;;;9.38;;
18752;SDS011;9505;50.882;5.350;2024-01-06T08:49:34;44.40;;;10.27;;
18752;SDS011;9505;50.882;5.350;2024-01-06T08:52:00;39.50;;;9.13;;
18752;SDS011;9505;50.882;5.350;2024-01-06T08:54:26;31.83;;;9.18;;
18752;SDS011;9505;50.882;5.350;2024-01-06T08:56:51;31.52;;;8.55;;
18752;SDS011;9505;50.882;5.350;2024-01-06T08:59:17;34.53;;;8.45;;
18752;SDS011;9505;50.882;5.350;2024-01-06T09:01:42;35.72;;;8.20;;
18752;SDS011;9505;50.882;5.350;2024-01-06T09:04:08;34.88;;;8.77;;
18752;SDS011;9505;50.882;5.350;2024-01-06T09:06:36;30.10;;;8.18;;
18752;SDS011;9505;50.882;5.350;2024-01-06T09:09:02;37.53;;;9.27;;
18752;SDS011;9505;50.882;5.350;2024-01-06T09:11:27;38.20;;;8.55;;
18752;SDS011;9505;50.882;5.350;2024-01-06T09:13:53;43.78;;;9.05;;
18752;SDS011;9505;50.882;5.350;2024-01-06T09:16:19;39.30;;;9.40;;
18752;SDS011;9505;50.882;5.350;2024-01-06T09:18:45;31.58;;;8.00;;
18752;SDS011;9505;50.882;5.350;2024-01-06T09:21:10;22.58;;;7.07;;
18752;SDS011;9505;50.882;5.350;2024-01-06T09:23:36;27.20;;;7.72;;
18752;SDS011;9505;50.882;5.350;2024-01-06T09:26:02;35.60;;;8.13;;
18752;SDS011;9505;50.882;5.350;2024-01-06T09:28:28;29.20;;;7.07;;
18752;SDS011;9505;50.882;5.350;2024-01-06T09:30:53;20.45;;;6.63;;
18752;SDS011;9505;50.882;5.350;2024-01-06T09:33:21;35.65;;;7.85;;
18752;SDS011;9505;50.882;5.350;2024-01-06T09:35:47;38.28;;;8.77;;
18752;SDS011;9505;50.882;5.350;2024-01-06T09:38:12;31.48;;;7.72;;
18752;SDS011;9505;50.882;5.350;2024-01-06T09:40:42;40.15;;;8.60;;
18752;SDS011;9505;50.882;5.350;2024-01-06T09:43:09;30.40;;;7.65;;
18752;SDS011;9505;50.882;5.350;2024-01-06T09:45:35;30.35;;;7.90;;
18752;SDS011;9505;50.882;5.350;2024-01-06T09:48:02;40.08;;;9.02;;
18752;SDS011;9505;50.882;5.350;2024-01-06T09:50:41;38.70;;;9.10;;
18752;SDS011;9505;50.882;5.350;2024-01-06T09:53:16;35.42;;;9.15;;
18752;SDS011;9505;50.882;5.350;2024-01-06T09:55:42;44.05;;;9.57;;
18752;SDS011;9505;50.882;5.350;2024-01-06T09:58:09;36.35;;;9.32;;
18752;SDS011;9505;50.882;5.350;2024-01-06T10:00:35;33.30;;;9.15;;
18752;SDS011;9505;50.882;5.350;2024-01-06T10:03:01;47.40;;;10.18;;
18752;SDS011;9505;50.882;5.350;2024-01-06T10:05:27;51.42;;;10.18;;
18752;SDS011;9505;50.882;5.350;2024-01-06T10:07:52;50.40;;;10.15;;
18752;SDS011;9505;50.882;5.350;2024-01-06T10:10:18;58.10;;;11.52;;
18752;SDS011;9505;50.882;5.350;2024-01-06T10:12:44;26.83;;;8.18;;
18752;SDS011;9505;50.882;5.350;2024-01-06T10:15:11;29.13;;;8.60;;
18752;SDS011;9505;50.882;5.350;2024-01-06T10:17:37;32.13;;;8.50;;
18752;SDS011;9505;50.882;5.350;2024-01-06T10:20:10;42.78;;;8.93;;
18752;SDS011;9505;50.882;5.350;2024-01-06T10:22:37;26.20;;;8.43;;
18752;SDS011;9505;50.882;5.350;2024-01-06T10:25:06;40.53;;;9.60;;
18752;SDS011;9505;50.882;5.350;2024-01-06T10:27:39;28.17;;;9.13;;
18752;SDS011;9505;50.882;5.350;2024-01-06T10:30:06;41.05;;;8.90;;
18752;SDS011;9505;50.882;5.350;2024-01-06T10:32:33;25.85;;;7.75;;
18752;SDS011;9505;50.882;5.350;2024-01-06T10:35:00;34.08;;;7.93;;
18752;SDS011;9505;50.882;5.350;2024-01-06T10:37:26;32.22;;;8.38;;
18752;SDS011;9505;50.882;5.350;2024-01-06T10:42:44;20.02;;;7.40;;
18752;SDS011;9505;50.882;5.350;2024-01-06T10:45:11;34.67;;;8.68;;
18752;SDS011;9505;50.882;5.350;2024-01-06T10:47:39;29.55;;;8.25;;
18752;SDS011;9505;50.882;5.350;2024-01-06T10:50:06;32.53;;;8.88;;
18752;SDS011;9505;50.882;5.350;2024-01-06T10:52:37;27.60;;;8.32;;
18752;SDS011;9505;50.882;5.350;2024-01-06T10:55:04;33.45;;;9.05;;
18752;SDS011;9505;50.882;5.350;2024-01-06T10:57:30;26.10;;;8.55;;
18752;SDS011;9505;50.882;5.350;2024-01-06T10:59:59;28.70;;;7.68;;
18752;SDS011;9505;50.882;5.350;2024-01-06T11:02:25;24.27;;;6.38;;
18752;SDS011;9505;50.882;5.350;2024-01-06T11:04:52;39.88;;;7.68;;
18752;SDS011;9505;50.882;5.350;2024-01-06T11:07:19;39.00;;;7.97;;
18752;SDS011;9505;50.882;5.350;2024-01-06T11:12:18;29.88;;;6.93;;
18752;SDS011;9505;50.882;5.350;2024-01-06T11:14:44;54.55;;;9.60;;
18752;SDS011;9505;50.882;5.350;2024-01-06T11:17:11;57.05;;;9.32;;
18752;SDS011;9505;50.882;5.350;2024-01-06T11:24:43;51.60;;;8.88;;
18752;SDS011;9505;50.882;5.350;2024-01-06T11:27:20;44.90;;;8.27;;
18752;SDS011;9505;50.882;5.350;2024-01-06T11:29:55;65.82;;;9.32;;
18752;SDS011;9505;50.882;5.350;2024-01-06T11:32:29;48.63;;;7.82;;
18752;SDS011;9505;50.882;5.350;2024-01-06T11:37:37;42.30;;;7.28;;
18752;SDS011;9505;50.882;5.350;2024-01-06T11:42:55;43.13;;;7.65;;
18752;SDS011;9505;50.882;5.350;2024-01-06T11:45:24;48.33;;;8.30;;
18752;SDS011;9505;50.882;5.350;2024-01-06T11:47:50;55.33;;;8.88;;
18752;SDS011;9505;50.882;5.350;2024-01-06T11:50:21;52.35;;;9.98;;
18752;SDS011;9505;50.882;5.350;2024-01-06T11:52:48;26.15;;;6.97;;
18752;SDS011;9505;50.882;5.350;2024-01-06T11:55:16;54.67;;;9.18;;
18752;SDS011;9505;50.882;5.350;2024-01-06T11:57:43;56.92;;;9.32;;
18752;SDS011;9505;50.882;5.350;2024-01-06T12:00:09;50.75;;;8.02;;
18752;SDS011;9505;50.882;5.350;2024-01-06T12:02:36;46.58;;;7.85;;
18752;SDS011;9505;50.882;5.350;2024-01-06T12:05:02;50.35;;;7.20;;
18752;SDS011;9505;50.882;5.350;2024-01-06T12:07:28;42.47;;;7.10;;
18752;SDS011;9505;50.882;5.350;2024-01-06T12:10:01;43.53;;;6.90;;
18752;SDS011;9505;50.882;5.350;2024-01-06T12:12:27;42.00;;;6.68;;
18752;SDS011;9505;50.882;5.350;2024-01-06T12:14:53;49.88;;;7.40;;
18752;SDS011;9505;50.882;5.350;2024-01-06T12:17:20;39.95;;;5.85;;
18752;SDS011;9505;50.882;5.350;2024-01-06T12:19:46;44.90;;;6.45;;
18752;SDS011;9505;50.882;5.350;2024-01-06T12:22:13;54.25;;;7.05;;
18752;SDS011;9505;50.882;5.350;2024-01-06T12:24:40;40.65;;;5.90;;
18752;SDS011;9505;50.882;5.350;2024-01-06T12:27:08;39.67;;;5.50;;
18752;SDS011;9505;50.882;5.350;2024-01-06T12:29:42;40.15;;;6.03;;
18752;SDS011;9505;50.882;5.350;2024-01-06T12:32:09;40.35;;;5.90;;
18752;SDS011;9505;50.882;5.350;2024-01-06T12:34:35;30.35;;;5.10;;
18752;SDS011;9505;50.882;5.350;2024-01-06T12:37:01;47.15;;;6.85;;
18752;SDS011;9505;50.882;5.350;2024-01-06T12:39:28;44.03;;;5.97;;
18752;SDS011;9505;50.882;5.350;2024-01-06T12:41:55;109.72;;;11.52;;
18752;SDS011;9505;50.882;5.350;2024-01-06T12:44:21;79.53;;;9.43;;
18752;SDS011;9505;50.882;5.350;2024-01-06T12:46:48;40.55;;;6.82;;
18752;SDS011;9505;50.882;5.350;2024-01-06T12:49:14;62.50;;;8.20;;
18752;SDS011;9505;50.882;5.350;2024-01-06T12:51:40;112.43;;;12.10;;
18752;SDS011;9505;50.882;5.350;2024-01-06T12:54:06;103.40;;;11.52;;
18752;SDS011;9505;50.882;5.350;2024-01-06T12:56:32;68.75;;;9.05;;
18752;SDS011;9505;50.882;5.350;2024-01-06T12:58:57;44.30;;;7.15;;
18752;SDS011;9505;50.882;5.350;2024-01-06T13:01:23;100.95;;;10.85;;
18752;SDS011;9505;50.882;5.350;2024-01-06T13:03:49;108.97;;;12.05;;
18752;SDS011;9505;50.882;5.350;2024-01-06T13:06:14;77.10;;;9.40;;
18752;SDS011;9505;50.882;5.350;2024-01-06T13:08:41;43.75;;;6.57;;
18752;SDS011;9505;50.882;5.350;2024-01-06T13:11:08;56.83;;;7.63;;
18752;SDS011;9505;50.882;5.350;2024-01-06T13:13:34;80.38;;;9.00;;
18752;SDS011;9505;50.882;5.350;2024-01-06T13:16:00;67.40;;;8.18;;
18752;SDS011;9505;50.882;5.350;2024-01-06T13:18:30;93.97;;;9.43;;
18752;SDS011;9505;50.882;5.350;2024-01-06T13:20:56;51.65;;;6.30;;
18752;SDS011;9505;50.882;5.350;2024-01-06T13:23:22;44.72;;;6.38;;
18752;SDS011;9505;50.882;5.350;2024-01-06T13:25:47;99.22;;;10.18;;
18752;SDS011;9505;50.882;5.350;2024-01-06T13:28:13;104.40;;;10.45;;
18752;SDS011;9505;50.882;5.350;2024-01-06T13:30:39;66.03;;;7.18;;
18752;SDS011;9505;50.882;5.350;2024-01-06T13:33:06;40.25;;;5.20;;
18752;SDS011;9505;50.882;5.350;2024-01-06T13:35:32;69.07;;;7.28;;
18752;SDS011;9505;50.882;5.350;2024-01-06T13:37:58;90.75;;;9.18;;
18752;SDS011;9505;50.882;5.350;2024-01-06T13:40:24;115.18;;;11.20;;
18752;SDS011;9505;50.882;5.350;2024-01-06T13:42:50;53.05;;;6.32;;
18752;SDS011;9505;50.882;5.350;2024-01-06T13:45:17;41.15;;;5.32;;
18752;SDS011;9505;50.882;5.350;2024-01-06T13:47:43;52.40;;;6.00;;
18752;SDS011;9505;50.882;5.350;2024-01-06T13:50:13;91.25;;;9.25;;
18752;SDS011;9505;50.882;5.350;2024-01-06T13:52:41;83.82;;;8.88;;
18752;SDS011;9505;50.882;5.350;2024-01-06T13:55:07;82.45;;;9.13;;
18752;SDS011;9505;50.882;5.350;2024-01-06T13:57:33;51.40;;;6.78;;
18752;SDS011;9505;50.882;5.350;2024-01-06T13:59:59;41.15;;;6.15;;
18752;SDS011;9505;50.882;5.350;2024-01-06T14:02:25;95.78;;;10.75;;
18752;SDS011;9505;50.882;5.350;2024-01-06T14:04:51;106.53;;;10.68;;
18752;SDS011;9505;50.882;5.350;2024-01-06T14:07:17;100.03;;;10.48;;
18752;SDS011;9505;50.882;5.350;2024-01-06T14:09:44;66.70;;;7.93;;
18752;SDS011;9505;50.882;5.350;2024-01-06T14:12:10;50.72;;;6.68;;
18752;SDS011;9505;50.882;5.350;2024-01-06T14:14:36;82.05;;;9.48;;
18752;SDS011;9505;50.882;5.350;2024-01-06T14:17:02;106.43;;;12.48;;
18752;SDS011;9505;50.882;5.350;2024-01-06T14:19:28;106.47;;;12.48;;
18752;SDS011;9505;50.882;5.350;2024-01-06T14:21:53;54.03;;;7.85;;
18752;SDS011;9505;50.882;5.350;2024-01-06T14:24:19;55.65;;;8.02;;
18752;SDS011;9505;50.882;5.350;2024-01-06T14:26:52;68.47;;;9.30;;
18752;SDS011;9505;50.882;5.350;2024-01-06T14:29:18;97.32;;;11.98;;
18752;SDS011;9505;50.882;5.350;2024-01-06T14:31:44;83.07;;;11.32;;
18752;SDS011;9505;50.882;5.350;2024-01-06T14:34:10;64.80;;;9.48;;
18752;SDS011;9505;50.882;5.350;2024-01-06T14:36:36;138.02;;;15.75;;
18752;SDS011;9505;50.882;5.350;2024-01-06T14:39:02;66.07;;;10.50;;
18752;SDS011;9505;50.882;5.350;2024-01-06T14:41:31;61.00;;;9.20;;
18752;SDS011;9505;50.882;5.350;2024-01-06T14:43:57;60.38;;;8.52;;
18752;SDS011;9505;50.882;5.350;2024-01-06T14:46:23;65.93;;;9.55;;
18752;SDS011;9505;50.882;5.350;2024-01-06T14:48:49;61.70;;;8.70;;
18752;SDS011;9505;50.882;5.350;2024-01-06T14:51:16;81.93;;;10.18;;
18752;SDS011;9505;50.882;5.350;2024-01-06T14:53:42;123.32;;;12.63;;